Time;durP1;ratioP1;P1;durP2;ratioP2;P2;SDS_P1;SDS_P2;PMS_P1;PMS_P2;Temp;Humidity;BMP_temperature;BMP_pressure;BME280_temperature;BME280_humidity;BME280_pressure;Samples;Min_cycle;Max_cycle;Signal;HPM_P1;HPM_P2
2024/04/02 00:01:58;;;;;;;31.70;4.60;;;;;;;15.97;100.00;98841.36;106031;1259;67088;-53
2024/04/02 00:04:25;;;;;;;31.90;5.20;;;;;;;15.99;100.00;98840.30;106259;1256;71705;-53
2024/04/02 00:06:53;;;;;;;24.50;3.80;;;;;;;15.99;100.00;98839.90;106039;1256;62038;-54
2024/04/02 00:09:21;;;;;;;31.30;4.70;;;;;;;15.98;100.00;98837.16;105934;1258;60049;-53
2024/04/02 00:11:48;;;;;;;27.30;4.00;;;;;;;15.97;100.00;98838.27;106082;1253;73481;-52
2024/04/02 00:14:15;;;;;;;35.60;5.20;;;;;;;15.97;100.00;98843.38;106082;1253;65064;-53
2024/04/02 00:16:42;;;;;;;26.20;3.80;;;;;;;15.96;100.00;98839.67;106040;1256;71383;-55
2024/04/02 00:19:09;;;;;;;26.40;5.40;;;;;;;15.95;100.00;98840.84;106081;1266;62169;-53
2024/04/02 00:21:36;;;;;;;35.60;5.30;;;;;;;15.93;100.00;98834.98;106060;1256;61241;-53
2024/04/02 00:24:04;;;;;;;21.80;3.60;;;;;;;15.91;100.00;98833.72;106087;1254;73659;-53
2024/04/02 00:26:31;;;;;;;32.80;4.30;;;;;;;15.88;100.00;98833.40;106125;1256;64908;-55
2024/04/02 00:28:58;;;;;;;36.90;5.10;;;;;;;15.85;100.00;98832.21;106095;1253;73010;-55
2024/04/02 00:31:26;;;;;;;30.80;4.70;;;;;;;15.82;100.00;98826.88;106448;1256;61298;-53
2024/04/02 00:33:53;;;;;;;28.70;4.10;;;;;;;15.80;100.00;98826.35;106132;1258;61435;-52
2024/04/02 00:36:21;;;;;;;25.10;4.10;;;;;;;15.77;100.00;98821.86;106170;1256;74682;-51
2024/04/02 00:38:48;;;;;;;26.40;4.10;;;;;;;15.74;100.00;98821.96;106143;1256;65725;-54
2024/04/02 00:41:15;;;;;;;20.10;4.60;;;;;;;15.71;100.00;98820.21;106187;1253;72756;-52
2024/04/02 00:43:42;;;;;;;14.70;3.20;;;;;;;15.68;100.00;98819.90;106061;1259;62305;-52
2024/04/02 00:46:10;;;;;;;27.60;4.20;;;;;;;15.68;100.00;98818.31;106046;1258;62151;-55
2024/04/02 00:48:37;;;;;;;26.00;4.70;;;;;;;15.67;100.00;98821.81;106127;1256;75020;-56
2024/04/02 00:51:04;;;;;;;22.20;2.90;;;;;;;15.67;100.00;98815.48;106062;1259;65555;-53
2024/04/02 00:53:32;;;;;;;29.00;4.20;;;;;;;15.68;100.00;98811.65;106146;1256;72726;-55
2024/04/02 00:55:59;;;;;;;27.20;3.90;;;;;;;15.68;100.00;98806.38;106159;1256;62104;-54
2024/04/02 00:58:26;;;;;;;25.00;4.30;;;;;;;15.68;100.00;98807.83;106019;1257;62192;-53
2024/04/02 01:00:56;;;;;;;30.40;3.50;;;;;;;15.68;100.00;98804.04;106082;1253;73448;-54
2024/04/02 01:03:24;;;;;;;24.90;4.70;;;;;;;15.68;100.00;98803.31;105949;1271;66728;-51
2024/04/02 01:05:51;;;;;;;26.80;4.20;;;;;;;15.67;100.00;98799.82;106042;1256;71375;-53
2024/04/02 01:08:18;;;;;;;27.40;3.90;;;;;;;15.66;100.00;98796.27;105974;1258;61652;-54
2024/04/02 01:10:45;;;;;;;24.20;4.00;;;;;;;15.64;100.00;98800.96;106033;1252;62105;-53
2024/04/02 01:13:13;;;;;;;27.80;3.50;;;;;;;15.62;100.00;98800.22;106072;1256;73751;-55
2024/04/02 01:15:40;;;;;;;30.30;4.50;;;;;;;15.59;100.00;98793.23;106334;1256;65635;-54
2024/04/02 01:18:07;;;;;;;25.60;3.20;;;;;;;15.56;100.00;98795.27;106134;1257;71410;-52
2024/04/02 01:20:34;;;;;;;21.70;2.90;;;;;;;15.55;100.00;98795.39;106121;1263;61637;-55
2024/04/02 01:23:01;;;;;;;22.50;3.30;;;;;;;15.53;100.00;98794.60;106112;1259;61369;-53
2024/04/02 01:25:30;;;;;;;22.30;3.30;;;;;;;15.52;100.00;98797.55;106088;1253;74711;-52
2024/04/02 01:27:58;;;;;;;27.00;4.00;;;;;;;15.51;100.00;98794.90;106245;1256;66890;-53
2024/04/02 01:30:25;;;;;;;23.10;3.90;;;;;;;15.50;100.00;98789.53;106121;1253;73010;-53
2024/04/02 01:32:52;;;;;;;29.00;3.30;;;;;;;15.49;100.00;98780.06;106083;1259;62137;-53
2024/04/02 01:35:19;;;;;;;27.60;4.10;;;;;;;15.49;100.00;98777.92;106090;1258;61887;-52
2024/04/02 01:37:46;;;;;;;23.50;2.70;;;;;;;15.51;100.00;98772.52;106137;1259;72903;-53
2024/04/02 01:40:14;;;;;;;22.00;4.50;;;;;;;15.51;100.00;98764.38;106134;1256;68598;-53
2024/04/02 01:42:41;;;;;;;31.40;3.70;;;;;;;15.50;100.00;98763.50;106084;1253;71463;-52
2024/04/02 01:45:08;;;;;;;18.90;3.50;;;;;;;15.49;100.00;98764.48;106080;1253;61379;-53
2024/04/02 01:47:36;;;;;;;18.30;3.10;;;;;;;15.48;100.00;98766.42;106335;1256;62192;-53
2024/04/02 01:50:03;;;;;;;27.50;3.50;;;;;;;15.45;100.00;98762.17;106125;1254;73635;-53
2024/04/02 01:52:30;;;;;;;29.40;4.30;;;;;;;15.43;100.00;98763.05;106140;1253;66343;-53
2024/04/02 01:54:59;;;;;;;20.90;3.90;;;;;;;15.40;100.00;98759.68;106113;1253;73202;-54
2024/04/02 01:57:26;;;;;;;19.80;3.30;;;;;;;15.37;100.00;98760.67;106133;1259;61250;-55
2024/04/02 01:59:53;;;;;;;18.50;3.30;;;;;;;15.34;100.00;98756.63;106173;1253;61295;-55
2024/04/02 02:02:20;;;;;;;20.10;2.70;;;;;;;15.30;100.00;98751.73;106259;1259;75125;-54
2024/04/02 02:04:47;;;;;;;26.50;2.90;;;;;;;15.27;100.00;98745.64;106270;1256;67960;-54
2024/04/02 02:07:15;;;;;;;23.30;2.20;;;;;;;15.24;100.00;98742.25;106264;1256;73210;-51
2024/04/02 02:09:42;;;;;;;23.80;3.60;;;;;;;15.23;100.00;98740.20;106219;1265;61348;-53
2024/04/02 02:12:09;;;;;;;24.00;4.00;;;;;;;15.21;100.00;98739.82;106190;1256;62329;-55
2024/04/02 02:14:36;;;;;;;28.10;3.50;;;;;;;15.19;100.00;98739.62;106140;1256;74721;-53
2024/04/02 02:17:04;;;;;;;33.60;4.50;;;;;;;15.17;100.00;98738.90;106076;1254;67039;-53
2024/04/02 02:19:31;;;;;;;26.40;3.30;;;;;;;15.13;100.00;98733.05;106154;1256;71432;-60
2024/04/02 02:21:58;;;;;;;20.90;3.10;;;;;;;15.10;100.00;98729.83;106091;1252;61337;-53
2024/04/02 02:24:25;;;;;;;30.50;4.30;;;;;;;15.07;100.00;98727.05;106119;1256;61250;-53
2024/04/02 02:26:52;;;;;;;24.50;3.60;;;;;;;15.01;100.00;98720.10;106147;1256;76936;-52
2024/04/02 02:29:25;;;;;;;20.70;3.50;;;;;;;14.96;100.00;98723.61;106183;1254;67373;-53
2024/04/02 02:31:52;;;;;;;29.90;3.50;;;;;;;14.92;100.00;98726.86;107310;1253;71281;-54
2024/04/02 02:34:19;;;;;;;22.60;3.30;;;;;;;14.87;100.00;98725.45;106198;1254;62365;-53
2024/04/02 02:36:47;;;;;;;19.00;3.00;;;;;;;14.82;100.00;98724.58;105956;1251;207249;-53
2024/04/02 02:40:38;;;;;;;14.00;2.40;;;;;;;14.78;100.00;98723.32;102725;1294;600658;-52
2024/04/02 02:43:05;;;;;;;16.10;2.80;;;;;;;14.74;100.00;98728.30;105238;1272;61726;-52
2024/04/02 02:45:32;;;;;;;15.00;2.90;;;;;;;14.73;100.00;98729.82;105102;1266;59768;-53
2024/04/02 02:48:00;;;;;;;25.50;4.50;;;;;;;14.72;100.00;98734.27;105167;1266;73715;-54
2024/04/02 02:50:27;;;;;;;22.80;2.60;;;;;;;14.71;100.00;98736.16;105266;1266;64814;-54
2024/04/02 02:52:56;;;;;;;21.90;2.60;;;;;;;14.69;100.00;98731.61;105098;1274;71476;-53
2024/04/02 02:55:23;;;;;;;23.40;3.30;;;;;;;14.68;100.00;98732.81;105161;1268;252985;-54
2024/04/02 02:57:50;;;;;;;28.10;4.40;;;;;;;14.66;100.00;98732.59;105251;1265;60516;-53
2024/04/02 03:00:18;;;;;;;28.00;3.80;;;;;;;14.64;100.00;98731.52;105269;1263;71804;-53
2024/04/02 03:02:45;;;;;;;19.90;2.00;;;;;;;14.61;100.00;98725.58;105417;1269;66180;-55
2024/04/02 03:05:13;;;;;;;28.80;3.20;;;;;;;14.58;100.00;98722.77;105479;1269;71420;-54
2024/04/02 03:07:40;;;;;;;26.90;3.80;;;;;;;14.55;100.00;98721.63;105683;1269;62020;-53
2024/04/02 03:10:07;;;;;;;23.70;3.50;;;;;;;14.51;100.00;98721.23;105395;1263;60547;-54
2024/04/02 03:12:35;;;;;;;22.30;2.80;;;;;;;14.47;100.00;98719.36;105302;1266;72672;-53
2024/04/02 03:15:03;;;;;;;31.10;3.20;;;;;;;14.44;100.00;98718.88;105669;1268;68589;-55
2024/04/02 03:17:30;;;;;;;19.40;2.20;;;;;;;14.41;100.00;98716.19;105245;1281;72743;-54
2024/04/02 03:19:57;;;;;;;22.10;3.10;;;;;;;14.39;100.00;98715.10;105187;1270;60529;-54
2024/04/02 03:22:25;;;;;;;18.40;2.40;;;;;;;14.38;100.00;98713.95;105275;1269;61304;-55
2024/04/02 03:24:52;;;;;;;16.60;2.60;;;;;;;14.37;100.00;98715.44;105219;1272;75912;-55
2024/04/02 03:27:19;;;;;;;25.80;3.40;;;;;;;14.36;100.00;98716.38;105329;1264;67384;-54
2024/04/02 03:29:46;;;;;;;22.20;3.10;;;;;;;14.36;100.00;98714.59;105357;1268;70762;-52
2024/04/02 03:32:15;;;;;;;19.20;2.70;;;;;;;14.35;100.00;98714.30;105387;1269;60517;-53
2024/04/02 03:34:42;;;;;;;32.50;3.70;;;;;;;14.35;100.00;98712.36;105435;1269;61006;-55
2024/04/02 03:37:09;;;;;;;22.90;3.70;;;;;;;14.32;100.00;98710.02;105313;1266;74834;-52
2024/04/02 03:39:36;;;;;;;35.30;3.90;;;;;;;14.30;100.00;98709.46;105371;1269;67149;-54
2024/04/02 03:42:04;;;;;;;19.90;3.90;;;;;;;14.28;100.00;98705.35;105378;1269;71621;-52
2024/04/02 03:44:33;;;;;;;29.00;2.70;;;;;;;14.25;100.00;98704.30;105409;1269;61339;-53
2024/04/02 03:47:00;;;;;;;23.00;3.50;;;;;;;14.22;100.00;98704.36;105559;1268;60565;-54
2024/04/02 03:49:28;;;;;;;18.80;3.00;;;;;;;14.19;100.00;98699.95;105346;1268;72651;-52
2024/04/02 03:51:55;;;;;;;22.60;2.50;;;;;;;14.15;100.00;98692.11;105306;1263;67128;-53
2024/04/02 03:54:22;;;;;;;25.90;3.00;;;;;;;14.13;100.00;98685.41;105311;1266;71550;-55
2024/04/02 03:56:50;;;;;;;17.70;2.90;;;;;;;14.12;100.00;98678.48;105322;1273;61355;-54
2024/04/02 03:59:17;;;;;;;21.40;2.20;;;;;;;14.11;100.00;98678.90;105381;1280;62220;-53
2024/04/02 04:01:44;;;;;;;28.90;2.30;;;;;;;14.10;100.00;98673.40;105431;1264;72724;-54
2024/04/02 04:04:12;;;;;;;21.70;2.80;;;;;;;14.11;100.00;98670.83;105404;1269;67081;-55
2024/04/02 04:06:39;;;;;;;24.90;3.30;;;;;;;14.11;100.00;98667.92;106428;1268;72479;-54
2024/04/02 04:09:07;;;;;;;21.60;2.70;;;;;;;14.11;100.00;98662.33;105350;1264;61022;-52
2024/04/02 04:11:35;;;;;;;29.70;4.40;;;;;;;14.11;100.00;98655.64;105338;1269;60575;-54
2024/04/02 04:14:03;;;;;;;22.80;2.40;;;;;;;14.11;100.00;98651.48;105354;1264;73886;-54
2024/04/02 04:16:31;;;;;;;28.30;2.40;;;;;;;14.12;100.00;98645.14;105571;1264;65790;-53
2024/04/02 04:18:58;;;;;;;23.80;3.00;;;;;;;14.10;100.00;98642.38;105817;1266;71766;-52
2024/04/02 04:21:26;;;;;;;22.60;2.40;;;;;;;14.08;100.00;98637.83;105306;1267;60575;-55
2024/04/02 04:23:53;;;;;;;24.30;2.30;;;;;;;14.07;100.00;98634.52;105338;1266;66046;-54
2024/04/02 04:26:20;;;;;;;25.10;2.00;;;;;;;14.05;100.00;98634.44;105371;1269;73834;-54
2024/04/02 04:28:47;;;;;;;23.70;3.40;;;;;;;14.04;100.00;98632.89;105237;1266;67079;-53
2024/04/02 04:31:15;;;;;;;18.00;2.30;;;;;;;14.03;100.00;98627.38;105310;1269;71464;-55
2024/04/02 04:33:42;;;;;;;23.60;2.10;;;;;;;14.03;100.00;98624.17;105329;1266;60501;-53
2024/04/02 04:36:12;;;;;;;17.60;2.00;;;;;;;14.05;100.00;98618.74;105367;1268;60401;-55
2024/04/02 04:38:39;;;;;;;22.50;2.20;;;;;;;14.08;100.00;98611.67;108747;1263;73369;-53
2024/04/02 04:41:06;;;;;;;17.70;2.00;;;;;;;14.13;100.00;98612.58;108117;1263;65880;-53
2024/04/02 04:43:34;;;;;;;22.80;2.10;;;;;;;14.15;100.00;98611.83;105548;1261;71792;-53
2024/04/02 04:46:03;;;;;;;32.20;3.30;;;;;;;14.17;100.00;98598.16;105593;1265;60631;-54
2024/04/02 04:48:31;;;;;;;18.10;3.40;;;;;;;14.19;100.00;98598.71;105608;1266;61407;-55
2024/04/02 04:50:59;;;;;;;17.60;2.30;;;;;;;14.21;100.00;98603.93;108642;1260;73984;-55
2024/04/02 04:53:27;;;;;;;22.60;2.20;;;;;;;14.22;100.00;98599.86;105785;1261;65957;-54
2024/04/02 04:56:01;;;;;;;25.90;4.00;;;;;;;14.25;100.00;98600.21;108736;1260;72753;-53
2024/04/02 04:58:29;;;;;;;25.80;2.20;;;;;;;14.26;100.00;98602.66;108727;1260;58854;-54
2024/04/02 05:00:56;;;;;;;22.30;3.80;;;;;;;14.27;100.00;98597.49;108596;1260;60093;-55
2024/04/02 05:03:23;;;;;;;30.60;3.70;;;;;;;14.29;100.00;98595.14;108542;1260;72728;-54
2024/04/02 05:06:07;;;;;;;24.50;2.80;;;;;;;14.32;100.00;98599.23;108677;1260;67916;-54
2024/04/02 05:08:35;;;;;;;18.20;2.70;;;;;;;14.36;100.00;98592.23;108533;1262;73221;-54
2024/04/02 05:11:03;;;;;;;23.90;2.90;;;;;;;14.41;100.00;98587.88;108691;1260;58869;-55
2024/04/02 05:13:31;;;;;;;18.70;2.20;;;;;;;14.46;100.00;98585.83;108678;1260;59945;-54
2024/04/02 05:15:58;;;;;;;26.30;3.10;;;;;;;14.51;100.00;98591.05;108065;1263;72514;-55
2024/04/02 05:18:25;;;;;;;13.10;2.30;;;;;;;14.54;100.00;98588.80;105592;1275;66457;-53
2024/04/02 05:20:53;;;;;;;26.80;3.40;;;;;;;14.57;100.00;98587.12;105502;1266;72729;-55
2024/04/02 05:23:21;;;;;;;18.90;2.10;;;;;;;14.59;100.00;98587.47;105910;1262;61332;-56
2024/04/02 05:25:48;;;;;;;25.80;3.80;;;;;;;14.61;100.00;98589.88;105448;1277;60376;-54
2024/04/02 05:28:15;;;;;;;30.70;6.80;;;;;;;14.62;100.00;98598.05;105496;1261;73855;-56
2024/04/02 05:30:43;;;;;;;56.70;7.10;;;;;;;14.62;100.00;98602.56;105443;1260;66794;-57
2024/04/02 05:33:10;;;;;;;28.80;2.80;;;;;;;14.65;100.00;98603.79;105480;1260;72076;-58
2024/04/02 05:35:37;;;;;;;38.30;5.90;;;;;;;14.68;100.00;98588.35;105484;1260;61758;-56
2024/04/02 05:38:06;;;;;;;23.00;2.40;;;;;;;14.71;100.00;98578.14;105495;1260;60380;-59
2024/04/02 05:40:33;;;;;;;17.90;3.60;;;;;;;14.74;100.00;98562.00;105738;1264;73812;-58
2024/04/02 05:43:01;;;;;;;19.30;3.00;;;;;;;14.76;100.00;98558.92;105381;1268;65820;-58
2024/04/02 05:45:29;;;;;;;17.30;2.50;;;;;;;14.79;100.00;98548.39;105386;1262;71711;-59
2024/04/02 05:47:56;;;;;;;18.20;2.30;;;;;;;14.81;100.00;98546.95;105374;1281;60515;-59
2024/04/02 05:50:24;;;;;;;19.90;2.90;;;;;;;14.85;100.00;98548.64;105327;1273;60534;-59
2024/04/02 05:52:51;;;;;;;30.70;3.70;;;;;;;14.90;100.00;98549.47;105379;1268;72637;-56
2024/04/02 05:55:18;;;;;;;20.80;1.90;;;;;;;14.95;100.00;98555.23;105398;1268;67535;-58
2024/04/02 05:57:46;;;;;;;23.80;3.00;;;;;;;14.99;100.00;98559.53;105390;1268;71487;-57
2024/04/02 06:00:13;;;;;;;16.70;1.50;;;;;;;15.04;100.00;98545.36;105524;1267;60395;-59
2024/04/02 06:02:43;;;;;;;17.70;2.20;;;;;;;15.10;100.00;98542.88;105472;1262;61031;-60
2024/04/02 06:05:11;;;;;;;19.20;2.80;;;;;;;15.15;100.00;98541.48;105343;1268;72720;-57
2024/04/02 06:07:38;;;;;;;14.40;2.70;;;;;;;15.22;100.00;98535.72;105424;1268;65141;-57
2024/04/02 06:10:05;;;;;;;19.60;2.50;;;;;;;15.29;100.00;98530.77;105451;1267;70724;-60
2024/04/02 06:12:32;;;;;;;20.00;3.30;;;;;;;15.35;100.00;98528.53;105359;1268;60458;-59
2024/04/02 06:15:00;;;;;;;29.90;3.20;;;;;;;15.42;100.00;98521.95;105360;1265;60476;-57
2024/04/02 06:17:28;;;;;;;22.40;2.80;;;;;;;15.50;100.00;98525.58;105633;1268;72768;-60
2024/04/02 06:19:55;;;;;;;19.00;2.70;;;;;;;15.57;100.00;98526.48;105369;1267;66976;-57
2024/04/02 06:22:27;;;;;;;18.80;1.70;;;;;;;15.64;100.00;98527.15;105369;1267;72743;-59
2024/04/02 06:24:54;;;;;;;18.50;3.20;;;;;;;15.70;100.00;98532.15;105675;1267;60416;-59
2024/04/02 06:27:21;;;;;;;24.00;1.90;;;;;;;15.76;100.00;98534.56;105422;1266;60555;-59
2024/04/02 06:29:48;;;;;;;19.60;3.00;;;;;;;15.81;100.00;98528.89;105363;1263;74214;-59
2024/04/02 06:32:20;;;;;;;26.50;2.90;;;;;;;15.87;100.00;98526.52;105455;1268;66965;-59
2024/04/02 06:34:47;;;;;;;21.60;2.80;;;;;;;15.94;100.00;98524.30;105774;1268;71524;-57
2024/04/02 06:37:15;;;;;;;23.70;2.70;;;;;;;16.00;100.00;98523.14;105320;1268;63254;-58
2024/04/02 06:39:43;;;;;;;25.80;2.90;;;;;;;16.06;100.00;98519.17;105551;1262;60497;-57
2024/04/02 06:42:10;;;;;;;18.00;2.80;;;;;;;16.12;100.00;98518.48;105492;1268;73071;-55
2024/04/02 06:44:37;;;;;;;21.40;3.50;;;;;;;16.19;100.00;98510.90;105486;1266;66683;-59
2024/04/02 06:47:05;;;;;;;28.40;3.30;;;;;;;16.27;100.00;98503.85;105542;1261;71485;-58
2024/04/02 06:49:32;;;;;;;18.50;2.80;;;;;;;16.36;100.00;98501.22;105443;1263;62811;-58
2024/04/02 06:51:59;;;;;;;17.30;2.10;;;;;;;16.43;100.00;98493.84;105931;1260;61692;-57
2024/04/02 06:54:26;;;;;;;23.70;2.60;;;;;;;16.51;100.00;98494.61;105728;1263;74737;-57
2024/04/02 06:56:55;;;;;;;17.60;2.60;;;;;;;16.57;100.00;98492.55;105684;1273;67116;-59
2024/04/02 06:59:24;;;;;;;20.90;3.00;;;;;;;16.62;100.00;98487.59;106035;1262;72774;-59
2024/04/02 07:01:51;;;;;;;19.30;2.90;;;;;;;16.69;100.00;98486.41;105860;1262;61454;-59
2024/04/02 07:04:18;;;;;;;27.00;3.20;;;;;;;16.76;100.00;98482.33;105852;1256;62733;-58
2024/04/02 07:07:44;;;;;;;17.30;2.70;;;;;;;16.87;100.00;98474.73;103045;1292;600847;-58
2024/04/02 07:10:11;;;;;;;22.90;2.80;;;;;;;16.94;100.00;98477.56;105317;1283;59757;-58
2024/04/02 07:12:38;;;;;;;16.70;3.20;;;;;;;17.02;100.00;98473.38;105419;1269;61067;-59
2024/04/02 07:15:06;;;;;;;25.10;4.00;;;;;;;17.09;100.00;98469.39;105452;1266;71085;-58
2024/04/02 07:17:34;;;;;;;18.30;2.60;;;;;;;17.18;100.00;98468.19;108254;1267;66914;-58
2024/04/02 07:20:02;;;;;;;29.50;2.90;;;;;;;17.26;100.00;98462.91;108441;1267;71770;-55
2024/04/02 07:22:29;;;;;;;19.10;3.00;;;;;;;17.34;100.00;98459.77;108348;1263;210462;-59
2024/04/02 07:24:56;;;;;;;22.80;2.40;;;;;;;17.42;100.00;98461.89;108535;1263;58861;-58
2024/04/02 07:27:24;;;;;;;35.70;4.70;;;;;;;17.51;100.00;98461.17;108561;1264;74887;-57
2024/04/02 07:29:51;;;;;;;24.10;4.10;;;;;;;17.61;100.00;98464.58;108553;1262;65677;-59
2024/04/02 07:32:18;;;;;;;23.80;2.60;;;;;;;17.70;100.00;98463.86;108530;1263;73363;-57
2024/04/02 07:34:45;;;;;;;28.70;3.00;;;;;;;17.79;100.00;98456.99;108579;1263;60290;-59
2024/04/02 07:37:12;;;;;;;25.00;3.70;;;;;;;17.89;100.00;98450.89;108541;1263;58842;-59
2024/04/02 07:39:40;;;;;;;33.60;4.30;;;;;;;18.00;100.00;98448.23;108602;1262;72612;-58
2024/04/02 07:42:07;;;;;;;24.60;2.80;;;;;;;18.10;100.00;98437.39;105688;1264;66982;-56
2024/04/02 07:44:34;;;;;;;24.40;3.10;;;;;;;18.20;100.00;98431.71;105429;1264;71608;-58
2024/04/02 07:47:01;;;;;;;22.60;2.70;;;;;;;18.27;100.00;98422.77;105431;1267;60566;-58
2024/04/02 07:49:29;;;;;;;25.90;3.90;;;;;;;18.35;100.00;98418.49;105425;1271;60819;-56
2024/04/02 07:51:56;;;;;;;19.70;2.90;;;;;;;18.43;100.00;98407.69;105371;1267;72648;-58
2024/04/02 07:54:23;;;;;;;28.30;2.80;;;;;;;18.52;100.00;98400.05;105430;1276;67668;-58
2024/04/02 07:56:50;;;;;;;20.80;3.10;;;;;;;18.60;100.00;98389.27;105374;1264;72746;-58
2024/04/02 07:59:18;;;;;;;25.20;4.20;;;;;;;18.68;100.00;98393.73;105409;1264;60459;-58
2024/04/02 08:01:45;;;;;;;29.00;3.80;;;;;;;18.74;100.00;98384.50;105448;1264;60597;-60
2024/04/02 08:04:12;;;;;;;32.90;3.40;;;;;;;18.80;100.00;98391.16;105649;1264;73938;-58
2024/04/02 08:06:42;;;;;;;28.10;3.70;;;;;;;18.85;100.00;98387.22;105670;1263;65045;-58
2024/04/02 08:09:09;;;;;;;25.00;2.90;;;;;;;18.90;100.00;98385.55;105907;1257;73120;-59
2024/04/02 08:11:37;;;;;;;24.20;3.10;;;;;;;18.97;100.00;98377.28;105866;1262;60466;-58
2024/04/02 08:14:05;;;;;;;21.80;3.00;;;;;;;19.02;100.00;98370.91;106416;1259;60575;-58
2024/04/02 08:16:32;;;;;;;22.70;3.70;;;;;;;19.09;100.00;98367.30;105925;1262;72625;-58
2024/04/02 08:18:59;;;;;;;24.00;2.80;;;;;;;19.18;100.00;98361.77;106027;1266;66856;-58
2024/04/02 08:21:27;;;;;;;20.10;2.60;;;;;;;19.27;100.00;98359.91;105886;1257;71772;-56
2024/04/02 08:23:55;;;;;;;22.00;2.50;;;;;;;19.35;100.00;98351.73;105862;1261;60929;-57
2024/04/02 08:26:23;;;;;;;25.00;3.40;;;;;;;19.43;100.00;98345.27;105976;1262;60542;-58
2024/04/02 08:28:51;;;;;;;26.00;3.40;;;;;;;19.52;100.00;98343.45;105921;1271;74349;-58
2024/04/02 08:31:18;;;;;;;22.60;4.00;;;;;;;19.61;100.00;98336.43;105828;1262;68933;-57
2024/04/02 08:33:45;;;;;;;21.50;1.90;;;;;;;19.70;100.00;98330.55;105876;1263;72486;-57
2024/04/02 08:36:12;;;;;;;24.60;3.20;;;;;;;19.79;100.00;98329.59;105879;1263;60527;-58
2024/04/02 08:38:40;;;;;;;28.50;2.20;;;;;;;19.88;100.00;98335.86;105768;1263;61435;-58
2024/04/02 08:41:07;;;;;;;35.50;4.90;;;;;;;19.97;100.00;98328.81;105756;1261;72171;-59
2024/04/02 08:43:35;;;;;;;22.00;3.30;;;;;;;20.06;100.00;98329.65;105694;1263;67160;-55
2024/04/02 08:46:03;;;;;;;30.10;3.60;;;;;;;20.14;100.00;98327.17;105909;1263;74035;-57
2024/04/02 08:48:31;;;;;;;25.90;3.10;;;;;;;20.21;100.00;98330.80;105759;1263;60706;-59
2024/04/02 08:51:00;;;;;;;19.50;3.60;;;;;;;20.28;100.00;98330.29;105785;1257;60377;-59
2024/04/02 08:53:27;;;;;;;28.70;3.80;;;;;;;20.37;100.00;98325.52;105838;1272;73962;-59
2024/04/02 08:55:59;;;;;;;30.40;2.80;;;;;;;20.47;100.00;98325.39;105800;1263;65951;-59
2024/04/02 08:58:27;;;;;;;34.90;4.70;;;;;;;20.56;100.00;98323.81;105782;1260;71412;-57
2024/04/02 09:00:54;;;;;;;27.00;3.10;;;;;;;20.62;100.00;98317.21;105888;1257;60759;-59
2024/04/02 09:03:22;;;;;;;31.10;3.40;;;;;;;20.70;100.00;98308.84;106065;1260;61337;-59
2024/04/02 09:05:49;;;;;;;26.10;3.80;;;;;;;20.79;100.00;98293.96;105956;1260;73899;-60
2024/04/02 09:08:17;;;;;;;20.40;3.40;;;;;;;20.89;100.00;98290.73;105842;1262;66888;-55
2024/04/02 09:10:44;;;;;;;25.10;3.40;;;;;;;20.95;100.00;98284.65;105908;1260;72859;-57
2024/04/02 09:13:11;;;;;;;39.80;4.80;;;;;;;21.01;100.00;98272.34;105840;1257;60476;-59
2024/04/02 09:15:40;;;;;;;40.20;3.50;;;;;;;21.08;100.00;98273.17;106001;1260;61790;-58
2024/04/02 09:18:07;;;;;;;24.40;3.80;;;;;;;21.14;100.00;98270.99;106126;1257;74885;-58
2024/04/02 09:20:36;;;;;;;31.30;3.70;;;;;;;21.20;100.00;98265.05;105865;1257;67134;-57
2024/04/02 09:23:04;;;;;;;27.00;4.50;;;;;;;21.27;100.00;98266.77;105848;1260;70635;-59
2024/04/02 09:25:31;;;;;;;35.50;4.60;;;;;;;21.35;100.00;98265.20;105993;1262;61294;-58
2024/04/02 09:27:58;;;;;;;31.10;3.60;;;;;;;21.40;100.00;98254.20;106033;1257;60634;-60
2024/04/02 09:30:26;;;;;;;33.70;3.10;;;;;;;21.45;100.00;98248.07;106067;1257;72639;-59
2024/04/02 09:32:53;;;;;;;28.10;3.60;;;;;;;21.53;100.00;98239.13;108880;1256;67886;-59
2024/04/02 09:35:59;;;;;;;25.40;3.60;;;;;;;21.61;100.00;98239.05;108787;1257;73257;-58
2024/04/02 09:38:27;;;;;;;39.10;3.70;;;;;;;21.68;100.00;98242.27;108555;1257;60838;-57
2024/04/02 09:40:54;;;;;;;35.10;3.90;;;;;;;21.71;100.00;98237.69;105723;1261;60569;-56
2024/04/02 09:43:21;;;;;;;28.70;4.10;;;;;;;21.71;100.00;98229.64;105866;1262;72268;-55
2024/04/02 09:45:49;;;;;;;26.00;3.40;;;;;;;21.72;100.00;98225.19;105823;1263;65779;-59
2024/04/02 09:48:17;;;;;;;29.50;3.70;;;;;;;21.74;100.00;98218.74;107417;1257;71485;-59
2024/04/02 09:50:44;;;;;;;35.50;3.20;;;;;;;21.76;100.00;98216.61;105760;1263;60424;-60
2024/04/02 09:53:11;;;;;;;27.00;2.90;;;;;;;21.79;100.00;98212.09;105810;1264;60508;-58
2024/04/02 09:55:39;;;;;;;29.60;3.70;;;;;;;21.79;100.00;98204.08;105820;1263;74052;-58
2024/04/02 09:58:08;;;;;;;17.80;3.00;;;;;;;21.78;100.00;98195.23;105800;1263;66345;-58
2024/04/02 10:00:36;;;;;;;35.80;4.00;;;;;;;21.78;100.00;98200.02;105991;1260;71432;-56
2024/04/02 10:03:04;;;;;;;26.50;3.90;;;;;;;21.79;100.00;98197.81;105846;1263;60709;-55
2024/04/02 10:05:35;;;;;;;30.80;4.20;;;;;;;21.83;100.00;98192.59;105818;1257;61208;-57
2024/04/02 10:08:05;;;;;;;26.80;3.20;;;;;;;21.88;100.00;98193.23;106020;1262;72633;-58
2024/04/02 10:10:36;;;;;;;33.50;4.60;;;;;;;21.94;100.00;98186.63;106114;1262;67581;-58
2024/04/02 10:13:06;;;;;;;26.90;3.10;;;;;;;22.01;100.00;98187.23;107735;1263;72733;-56
2024/04/02 10:15:34;;;;;;;23.40;3.30;;;;;;;22.10;100.00;98182.60;109128;1256;60637;-58
2024/04/02 10:18:01;;;;;;;28.00;2.50;;;;;;;22.18;100.00;98177.27;108953;1256;60743;-55
2024/04/02 10:20:30;;;;;;;29.50;5.80;;;;;;;22.23;100.00;98177.21;108747;1257;73912;-57
2024/04/02 10:22:58;;;;;;;29.30;3.40;;;;;;;22.23;100.00;98183.83;108913;1257;65870;-56
2024/04/02 10:25:28;;;;;;;27.60;3.00;;;;;;;22.20;100.00;98181.50;108847;1256;72677;-57
2024/04/02 10:27:59;;;;;;;20.00;3.00;;;;;;;22.20;100.00;98170.64;108889;1258;60008;-56
2024/04/02 10:30:27;;;;;;;23.70;3.40;;;;;;;22.22;100.00;98164.91;107475;1262;60466;-57
2024/04/02 10:32:54;;;;;;;24.80;3.40;;;;;;;22.26;100.00;98162.42;108811;1257;72660;-57
2024/04/02 10:35:26;;;;;;;25.10;3.00;;;;;;;22.29;100.00;98154.45;108859;1257;69563;-58
2024/04/02 10:37:55;;;;;;;29.00;3.90;;;;;;;22.28;100.00;98162.63;108910;1256;73260;-57
2024/04/02 10:40:22;;;;;;;19.60;3.70;;;;;;;22.27;100.00;98160.17;109128;1257;62621;-55
2024/04/02 10:42:51;;;;;;;21.00;2.60;;;;;;;22.25;100.00;98157.19;108668;1257;60906;-57
2024/04/02 10:45:19;;;;;;;21.80;2.90;;;;;;;22.25;100.00;98157.98;109057;1256;73890;-58
2024/04/02 10:47:52;;;;;;;22.40;2.80;;;;;;;22.28;100.00;98156.34;108795;1256;67068;-56
2024/04/02 10:50:21;;;;;;;25.00;3.80;;;;;;;22.32;100.00;98151.36;107655;1260;75351;-57
2024/04/02 10:52:49;;;;;;;32.60;3.70;;;;;;;22.32;100.00;98144.41;106931;1260;61181;-55
2024/04/02 10:55:16;;;;;;;25.20;3.80;;;;;;;22.31;100.00;98133.92;105797;1260;60303;-55
2024/04/02 10:57:43;;;;;;;27.30;4.40;;;;;;;22.32;100.00;98124.85;105808;1257;73984;-58
2024/04/02 11:00:12;;;;;;;27.40;4.40;;;;;;;22.36;100.00;98116.44;105824;1262;65968;-58
2024/04/02 11:02:41;;;;;;;23.30;3.20;;;;;;;22.43;100.00;98106.48;106433;1261;71410;-56
2024/04/02 11:05:13;;;;;;;25.20;4.10;;;;;;;22.51;100.00;98098.91;105881;1266;60603;-57
2024/04/02 11:07:42;;;;;;;17.70;2.70;;;;;;;22.58;100.00;98100.33;106285;1262;60847;-56
2024/04/02 11:10:11;;;;;;;25.70;3.20;;;;;;;22.65;100.00;98099.48;106106;1260;72306;-56
2024/04/02 11:12:39;;;;;;;41.80;4.70;;;;;;;22.71;100.00;98097.60;106113;1257;64788;-58
2024/04/02 11:15:07;;;;;;;31.20;4.20;;;;;;;22.76;100.00;98086.62;105907;1263;74899;-58